createdAt,value
2023-09-29T00:00:19.116Z,18.19
2023-09-29T00:02:48.769Z,18.17
2023-09-29T00:05:19.106Z,18.16
2023-09-29T00:07:46.633Z,18.15
2023-09-29T00:10:18.519Z,18.14
2023-09-29T00:12:46.639Z,18.12
2023-09-29T00:15:14.023Z,18.13
2023-09-29T00:17:41.012Z,18.12
2023-09-29T00:20:26.972Z,18.11
2023-09-29T00:22:55.793Z,18.10
2023-09-29T00:25:23.113Z,18.07
2023-09-29T00:27:49.999Z,18.07
2023-09-29T00:30:16.790Z,18.05
2023-09-29T00:32:48.550Z,18.04
2023-09-29T00:35:28.388Z,18.01
2023-09-29T00:37:55.866Z,18.00
2023-09-29T00:40:23.870Z,17.99
2023-09-29T00:42:50.812Z,17.99
2023-09-29T00:45:21.379Z,17.98
2023-09-29T00:47:51.947Z,17.96
2023-09-29T00:50:22.335Z,17.95
2023-09-29T00:52:52.249Z,17.95
2023-09-29T00:55:23.445Z,17.95
2023-09-29T00:57:52.450Z,17.94
2023-09-29T01:00:22.488Z,17.93
2023-09-29T01:02:50.342Z,17.92
2023-09-29T01:05:17.539Z,17.90
2023-09-29T01:07:44.425Z,17.90
2023-09-29T01:10:19.109Z,17.89
2023-09-29T01:12:46.295Z,17.88
2023-09-29T01:15:16.677Z,17.88
2023-09-29T01:17:48.288Z,17.86
2023-09-29T01:20:22.884Z,17.86
2023-09-29T01:22:50.232Z,17.85
2023-09-29T01:25:17.379Z,17.85
2023-09-29T01:27:44.514Z,17.85
2023-09-29T01:30:14.947Z,17.84
2023-09-29T01:32:42.951Z,17.85
2023-09-29T01:35:11.966Z,17.84
2023-09-29T01:37:39.842Z,17.84
2023-09-29T01:40:09.345Z,17.83
2023-09-29T01:42:36.811Z,17.84
2023-09-29T01:45:06.116Z,17.83
2023-09-29T01:47:33.040Z,17.83
2023-09-29T01:50:00.358Z,17.83
2023-09-29T01:52:27.682Z,17.82
2023-09-29T01:54:59.062Z,17.81
2023-09-29T01:57:25.934Z,17.80
2023-09-29T01:59:53.540Z,17.82
2023-09-29T02:02:20.457Z,17.80
2023-09-29T02:04:49.097Z,17.79
2023-09-29T02:07:15.911Z,17.80
2023-09-29T02:09:44.057Z,17.81
2023-09-29T02:12:15.638Z,17.80
2023-09-29T02:14:42.541Z,17.81
2023-09-29T02:17:10.205Z,17.82
2023-09-29T02:19:37.124Z,17.81
2023-09-29T02:22:08.025Z,17.80
2023-09-29T02:24:34.918Z,17.79
2023-09-29T02:27:02.056Z,17.80
2023-09-29T02:29:29.297Z,17.80
2023-09-29T02:31:59.383Z,17.79
2023-09-29T02:34:26.280Z,17.79
2023-09-29T02:36:53.686Z,17.78
2023-09-29T02:39:20.985Z,17.77
2023-09-29T02:41:47.912Z,17.75
2023-09-29T02:44:14.865Z,17.76
2023-09-29T02:46:41.678Z,17.77
2023-09-29T02:49:11.555Z,17.75
2023-09-29T02:51:38.551Z,17.74
2023-09-29T02:54:05.695Z,17.75
2023-09-29T02:56:32.537Z,17.75
2023-09-29T02:58:59.382Z,17.75
2023-09-29T03:01:26.178Z,17.74
2023-09-29T03:03:56.017Z,17.73
2023-09-29T03:06:23.258Z,17.72
2023-09-29T03:08:56.372Z,17.74
2023-09-29T03:11:23.780Z,17.72
2023-09-29T03:13:50.621Z,17.71
2023-09-29T03:16:19.600Z,17.70
2023-09-29T03:18:47.790Z,17.71
2023-09-29T03:21:14.968Z,17.68
2023-09-29T03:23:44.242Z,17.67
2023-09-29T03:26:11.045Z,17.70
2023-09-29T03:28:38.153Z,17.68
2023-09-29T03:31:08.998Z,17.70
2023-09-29T03:33:36.722Z,17.68
2023-09-29T03:36:05.405Z,17.67
2023-09-29T03:38:32.621Z,17.67
2023-09-29T03:40:59.533Z,17.67
2023-09-29T03:43:26.450Z,17.68
2023-09-29T03:45:55.234Z,17.67
2023-09-29T03:48:22.347Z,17.67
2023-09-29T03:50:51.239Z,17.67
2023-09-29T03:53:18.599Z,17.66
2023-09-29T03:55:48.632Z,17.67
2023-09-29T03:58:15.670Z,17.66
2023-09-29T04:00:42.546Z,17.66
2023-09-29T04:03:09.749Z,17.66
2023-09-29T04:05:36.822Z,17.65
2023-09-29T04:08:04.567Z,17.67
2023-09-29T04:10:31.482Z,17.65
2023-09-29T04:12:58.921Z,17.65
2023-09-29T04:15:26.999Z,17.66
2023-09-29T04:17:53.936Z,17.63
2023-09-29T04:20:21.269Z,17.64
2023-09-29T04:22:48.101Z,17.64
2023-09-29T04:25:15.035Z,17.64
2023-09-29T04:27:41.963Z,17.62
2023-09-29T04:30:10.620Z,17.62
2023-09-29T04:32:37.817Z,17.61
2023-09-29T04:35:06.581Z,17.60
2023-09-29T04:37:33.427Z,17.61
2023-09-29T04:40:00.352Z,17.59
2023-09-29T04:42:27.181Z,17.59
2023-09-29T04:44:54.051Z,17.59
2023-09-29T04:47:21.535Z,17.59
2023-09-29T04:49:48.616Z,17.57
2023-09-29T04:52:15.423Z,17.57
2023-09-29T04:54:42.259Z,17.58
2023-09-29T04:57:09.101Z,17.57
2023-09-29T04:59:36.131Z,17.56
2023-09-29T05:02:03.225Z,17.53
2023-09-29T05:04:30.416Z,17.55
2023-09-29T05:06:57.219Z,17.54
2023-09-29T05:09:24.116Z,17.52
2023-09-29T05:11:51.020Z,17.50
2023-09-29T05:14:17.927Z,17.50
2023-09-29T05:16:45.019Z,17.49
2023-09-29T05:19:12.410Z,17.47
2023-09-29T05:21:39.343Z,17.47
2023-09-29T05:24:06.842Z,17.45
2023-09-29T05:26:33.922Z,17.44
2023-09-29T05:29:01.523Z,17.42
2023-09-29T05:31:28.827Z,17.41
2023-09-29T05:33:56.647Z,17.40
2023-09-29T05:36:23.595Z,17.41
2023-09-29T05:38:51.508Z,17.39
2023-09-29T05:41:18.452Z,17.38
2023-09-29T05:43:45.366Z,17.37
2023-09-29T05:46:13.432Z,17.34
2023-09-29T05:48:40.596Z,17.34
2023-09-29T05:51:07.786Z,17.33
2023-09-29T05:53:34.811Z,17.31
2023-09-29T05:56:11.475Z,17.30
2023-09-29T05:58:38.368Z,17.28
2023-09-29T06:01:12.624Z,17.28
2023-09-29T06:03:39.978Z,17.27
2023-09-29T06:06:06.998Z,17.26
2023-09-29T06:08:51.991Z,17.25
2023-09-29T06:11:20.800Z,17.24
2023-09-29T06:13:47.939Z,17.23
2023-09-29T06:16:14.765Z,17.22
2023-09-29T06:18:41.708Z,17.21
2023-09-29T06:21:08.926Z,17.19
2023-09-29T06:23:36.274Z,17.19
2023-09-29T06:26:03.716Z,17.19
2023-09-29T06:28:30.558Z,17.17
2023-09-29T06:30:58.392Z,17.16
2023-09-29T06:33:27.007Z,17.15
2023-09-29T06:35:54.134Z,17.15
2023-09-29T06:38:21.142Z,17.16
2023-09-29T06:40:48.492Z,17.16
2023-09-29T06:43:16.853Z,17.16
2023-09-29T06:45:59.788Z,17.15
2023-09-29T06:48:28.605Z,17.15
2023-09-29T06:51:01.045Z,17.14
2023-09-29T06:53:30.110Z,17.14
2023-09-29T06:55:57.628Z,17.14
2023-09-29T06:58:24.476Z,17.14
2023-09-29T07:00:53.150Z,17.13
2023-09-29T07:03:20.734Z,17.13
2023-09-29T07:05:48.014Z,17.13
2023-09-29T07:08:15.000Z,17.13
2023-09-29T07:10:41.937Z,17.14
2023-09-29T07:13:08.905Z,17.14
2023-09-29T07:15:35.718Z,17.14
2023-09-29T07:18:02.700Z,17.14
2023-09-29T07:20:32.151Z,17.13
2023-09-29T07:22:58.999Z,17.13
2023-09-29T07:25:25.859Z,17.13
2023-09-29T07:27:52.732Z,17.14
2023-09-29T07:30:19.635Z,17.16
2023-09-29T07:32:46.534Z,17.16
2023-09-29T07:35:14.078Z,17.17
2023-09-29T07:37:41.021Z,17.17
2023-09-29T07:40:09.247Z,17.17
2023-09-29T07:42:36.097Z,17.18
2023-09-29T07:45:03.055Z,17.17
2023-09-29T07:47:30.213Z,17.18
2023-09-29T07:49:57.052Z,17.17
2023-09-29T07:52:29.125Z,17.17
2023-09-29T07:54:58.809Z,17.18
2023-09-29T07:57:25.685Z,17.17
2023-09-29T07:59:53.646Z,17.16
2023-09-29T08:02:20.513Z,17.16
2023-09-29T08:04:47.418Z,17.18
2023-09-29T08:07:14.541Z,17.17
2023-09-29T08:09:41.390Z,17.16
2023-09-29T08:12:08.333Z,17.16
2023-09-29T08:14:35.251Z,17.17
2023-09-29T08:17:02.418Z,17.18
2023-09-29T08:19:30.348Z,17.18
2023-09-29T08:21:57.225Z,17.18
2023-09-29T08:24:24.044Z,17.19
2023-09-29T08:26:50.912Z,17.20
2023-09-29T08:29:17.832Z,17.21
2023-09-29T08:31:45.772Z,17.24
2023-09-29T08:34:12.989Z,17.26
2023-09-29T08:36:40.030Z,17.28
2023-09-29T08:39:07.524Z,17.29
2023-09-29T08:41:36.748Z,17.32
2023-09-29T08:44:08.746Z,17.33
2023-09-29T08:46:36.594Z,17.34
2023-09-29T08:49:04.933Z,17.35
2023-09-29T08:51:34.417Z,17.39
2023-09-29T08:54:04.328Z,17.41
2023-09-29T08:56:32.102Z,17.41
2023-09-29T08:59:01.139Z,17.43
2023-09-29T09:01:28.148Z,17.43
2023-09-29T09:03:55.486Z,17.46
2023-09-29T09:06:24.735Z,17.48
2023-09-29T09:08:58.172Z,17.49
2023-09-29T09:11:25.318Z,17.50
2023-09-29T09:14:11.157Z,17.52
2023-09-29T09:16:40.031Z,17.55
2023-09-29T09:19:16.858Z,17.57
2023-09-29T09:21:45.074Z,17.58
2023-09-29T09:24:38.516Z,17.60
2023-09-29T09:27:05.418Z,17.60
2023-09-29T09:29:32.526Z,17.63
2023-09-29T09:32:01.270Z,17.65
2023-09-29T09:34:37.587Z,17.67
2023-09-29T09:37:06.766Z,17.67
2023-09-29T09:39:35.788Z,17.69
2023-09-29T09:42:06.885Z,17.71
2023-09-29T09:44:35.741Z,17.73
2023-09-29T09:47:04.634Z,17.76
2023-09-29T09:49:44.629Z,17.76
2023-09-29T09:52:16.959Z,17.78
2023-09-29T09:54:48.287Z,17.78
2023-09-29T09:57:24.695Z,17.81
2023-09-29T09:59:55.797Z,17.80
2023-09-29T10:02:23.495Z,17.80
2023-09-29T10:04:51.392Z,17.82
2023-09-29T10:07:18.562Z,17.83
2023-09-29T10:09:50.242Z,17.85
2023-09-29T10:12:24.578Z,17.85
2023-09-29T10:14:53.630Z,17.86
2023-09-29T10:17:21.994Z,17.87
2023-09-29T10:19:52.668Z,17.88
2023-09-29T10:22:24.741Z,17.90
2023-09-29T10:24:57.923Z,17.91
2023-09-29T10:27:33.865Z,17.94
2023-09-29T10:30:15.054Z,17.95
2023-09-29T10:32:42.910Z,17.96
2023-09-29T10:35:16.860Z,17.97
2023-09-29T10:37:46.026Z,18.00
2023-09-29T10:40:35.395Z,18.02
2023-09-29T10:43:05.971Z,18.05
2023-09-29T10:45:42.100Z,18.09
2023-09-29T10:48:10.035Z,18.10
2023-09-29T10:50:50.140Z,18.13
2023-09-29T10:53:18.585Z,18.15
2023-09-29T10:55:48.318Z,18.17
2023-09-29T10:58:17.552Z,18.23
2023-09-29T11:00:49.832Z,18.26
2023-09-29T11:03:18.483Z,18.28
2023-09-29T11:05:54.867Z,18.32
2023-09-29T11:08:30.230Z,18.34
2023-09-29T11:11:02.101Z,18.38
2023-09-29T11:13:29.061Z,18.39
2023-09-29T11:15:57.307Z,18.39
2023-09-29T11:18:27.970Z,18.40
2023-09-29T11:20:55.437Z,18.43
2023-09-29T11:23:22.435Z,18.46
2023-09-29T11:25:50.862Z,18.50
2023-09-29T11:28:18.848Z,18.52
2023-09-29T11:30:46.036Z,18.56
2023-09-29T11:33:14.574Z,18.56
2023-09-29T11:35:59.673Z,18.55
2023-09-29T11:38:32.508Z,18.53
2023-09-29T11:40:59.303Z,18.53
2023-09-29T11:43:27.338Z,18.54
2023-09-29T11:45:54.339Z,18.59
2023-09-29T11:48:21.328Z,18.61
2023-09-29T11:50:48.252Z,18.64
2023-09-29T11:53:15.119Z,18.65
2023-09-29T11:55:42.208Z,18.64
2023-09-29T11:58:09.535Z,18.63
2023-09-29T12:00:37.386Z,18.63
2023-09-29T12:03:07.863Z,18.65
2023-09-29T12:05:39.185Z,18.67
2023-09-29T12:08:07.636Z,18.69
2023-09-29T12:10:34.542Z,18.73
2023-09-29T12:13:01.483Z,18.76
2023-09-29T12:15:28.528Z,18.76
2023-09-29T12:17:55.644Z,18.77
2023-09-29T12:20:23.226Z,18.75
2023-09-29T12:22:52.072Z,18.74
2023-09-29T12:25:18.997Z,18.72
2023-09-29T12:27:47.345Z,18.68
2023-09-29T12:30:14.647Z,18.67
2023-09-29T12:32:42.799Z,18.64
2023-09-29T12:35:16.315Z,18.62
2023-09-29T12:37:44.349Z,18.60
2023-09-29T12:40:13.107Z,18.61
2023-09-29T12:42:43.806Z,18.62
2023-09-29T12:45:11.650Z,18.63
2023-09-29T12:47:38.689Z,18.65
2023-09-29T12:50:06.133Z,18.67
2023-09-29T12:52:33.340Z,18.69
2023-09-29T12:55:00.261Z,18.69
2023-09-29T12:57:27.178Z,18.72
2023-09-29T12:59:54.208Z,18.72
2023-09-29T13:02:29.339Z,18.71
2023-09-29T13:04:56.793Z,18.70
2023-09-29T13:07:23.856Z,18.74
2023-09-29T13:09:50.664Z,18.76
2023-09-29T13:12:30.397Z,18.78
2023-09-29T13:14:58.888Z,18.78
2023-09-29T13:17:26.419Z,18.78
2023-09-29T13:19:53.197Z,18.78
2023-09-29T13:22:20.053Z,18.77
2023-09-29T13:24:48.816Z,18.75
2023-09-29T13:27:15.760Z,18.74
2023-09-29T13:29:43.896Z,18.72
2023-09-29T13:32:10.714Z,18.72
2023-09-29T13:34:37.508Z,18.72
2023-09-29T13:37:04.392Z,18.72
2023-09-29T13:39:31.246Z,18.75
2023-09-29T13:41:58.108Z,18.77
2023-09-29T13:44:25.022Z,18.79
2023-09-29T13:47:03.301Z,18.83
2023-09-29T13:49:35.956Z,18.86
2023-09-29T13:52:02.877Z,18.86
2023-09-29T13:54:30.564Z,18.87
2023-09-29T13:56:59.205Z,18.87
2023-09-29T13:59:26.142Z,18.88
2023-09-29T14:01:53.090Z,18.90
2023-09-29T14:04:19.993Z,18.89
2023-09-29T14:06:47.021Z,18.91
2023-09-29T14:09:17.897Z,18.92
2023-09-29T14:11:46.018Z,18.93
2023-09-29T14:14:13.105Z,18.94
2023-09-29T14:16:40.132Z,18.98
2023-09-29T14:19:07.236Z,18.99
2023-09-29T14:21:34.885Z,18.99
2023-09-29T14:24:02.488Z,19.00
2023-09-29T14:26:29.435Z,19.00
2023-09-29T14:28:59.417Z,18.96
2023-09-29T14:31:28.108Z,18.96
2023-09-29T14:33:55.552Z,18.94
2023-09-29T14:36:23.295Z,18.94
2023-09-29T14:38:50.308Z,18.92
2023-09-29T14:41:17.237Z,18.92
2023-09-29T14:43:45.909Z,18.91
2023-09-29T14:46:17.435Z,18.92
2023-09-29T14:48:44.672Z,18.92
2023-09-29T14:51:12.095Z,18.93
2023-09-29T14:53:40.366Z,18.93
2023-09-29T14:56:11.408Z,18.94
2023-09-29T14:58:38.216Z,18.94
2023-09-29T15:01:05.139Z,18.94
2023-09-29T15:03:32.995Z,18.95
2023-09-29T15:06:01.042Z,18.94
2023-09-29T15:08:32.121Z,18.94
2023-09-29T15:11:00.547Z,18.93
2023-09-29T15:13:27.992Z,18.93
2023-09-29T15:15:56.234Z,18.93
2023-09-29T15:18:23.536Z,18.93
2023-09-29T15:20:51.895Z,18.93
2023-09-29T15:23:20.262Z,18.92
2023-09-29T15:25:49.644Z,18.92
2023-09-29T15:28:18.001Z,18.91
2023-09-29T15:30:46.634Z,18.91
2023-09-29T15:33:14.421Z,18.90
2023-09-29T15:35:56.410Z,18.89
2023-09-29T15:38:24.476Z,18.89
2023-09-29T15:40:54.533Z,18.88
2023-09-29T15:43:21.760Z,18.88
2023-09-29T15:45:49.726Z,18.86
2023-09-29T15:48:17.301Z,18.85
2023-09-29T15:50:44.721Z,18.85
2023-09-29T15:53:16.284Z,18.83
2023-09-29T15:55:44.259Z,18.82
2023-09-29T15:58:11.946Z,18.78
2023-09-29T16:00:39.146Z,18.78
2023-09-29T16:03:07.380Z,18.74
2023-09-29T16:05:35.335Z,18.69
2023-09-29T16:08:02.332Z,18.66
2023-09-29T16:10:29.988Z,18.62
2023-09-29T16:12:57.616Z,18.60
2023-09-29T16:15:24.677Z,18.56
2023-09-29T16:17:52.222Z,18.54
2023-09-29T16:20:19.561Z,18.52
2023-09-29T16:22:46.503Z,18.50
2023-09-29T16:25:13.609Z,18.48
2023-09-29T16:27:40.734Z,18.46
2023-09-29T16:30:08.769Z,18.45
2023-09-29T16:32:35.843Z,18.43
2023-09-29T16:35:03.392Z,18.41
2023-09-29T16:37:32.872Z,18.39
2023-09-29T16:40:08.511Z,18.37
2023-09-29T16:42:46.144Z,18.36
2023-09-29T16:45:15.672Z,18.33
2023-09-29T16:47:45.115Z,18.33
2023-09-29T16:50:12.644Z,18.31
2023-09-29T16:52:39.582Z,18.31
2023-09-29T16:55:07.367Z,18.29
2023-09-29T16:57:34.331Z,18.29
2023-09-29T17:00:15.217Z,18.28
2023-09-29T17:02:42.103Z,18.24
2023-09-29T17:05:09.469Z,18.24
2023-09-29T17:07:36.297Z,18.23
2023-09-29T17:10:05.101Z,18.21
2023-09-29T17:12:32.949Z,18.20
2023-09-29T17:15:03.725Z,18.18
2023-09-29T17:17:30.677Z,18.15
2023-09-29T17:19:57.636Z,18.15
2023-09-29T17:22:25.032Z,18.13
2023-09-29T17:24:51.880Z,18.12
2023-09-29T17:27:19.369Z,18.09
2023-09-29T17:29:46.284Z,18.08
2023-09-29T17:32:13.144Z,18.05
2023-09-29T17:34:39.990Z,18.02
2023-09-29T17:37:06.866Z,18.01
2023-09-29T17:39:34.480Z,17.99
2023-09-29T17:42:02.284Z,17.96
2023-09-29T17:44:29.337Z,17.94
2023-09-29T17:46:56.144Z,17.92
2023-09-29T17:49:24.168Z,17.89
2023-09-29T17:51:51.054Z,17.87
2023-09-29T17:54:18.061Z,17.85
2023-09-29T17:56:45.396Z,17.82
2023-09-29T17:59:12.473Z,17.80
2023-09-29T18:01:39.369Z,17.77
2023-09-29T18:04:06.400Z,17.73
2023-09-29T18:06:33.332Z,17.71
2023-09-29T18:09:00.495Z,17.68
2023-09-29T18:11:28.115Z,17.64
2023-09-29T18:13:56.600Z,17.63
2023-09-29T18:16:24.005Z,17.59
2023-09-29T18:18:50.891Z,17.57
2023-09-29T18:21:18.040Z,17.53
2023-09-29T18:23:44.898Z,17.50
2023-09-29T18:26:11.786Z,17.46
2023-09-29T18:28:39.615Z,17.43
2023-09-29T18:31:08.352Z,17.41
2023-09-29T18:33:35.524Z,17.36
2023-09-29T18:36:03.681Z,17.34
2023-09-29T18:38:30.797Z,17.32
2023-09-29T18:40:58.101Z,17.28
2023-09-29T18:43:25.007Z,17.27
2023-09-29T18:46:00.004Z,17.24
2023-09-29T18:48:27.230Z,17.21
2023-09-29T18:50:54.251Z,17.19
2023-09-29T18:53:21.126Z,17.17
2023-09-29T18:55:48.060Z,17.13
2023-09-29T18:58:14.860Z,17.12
2023-09-29T19:00:41.892Z,17.10
2023-09-29T19:03:08.896Z,17.06
2023-09-29T19:05:39.049Z,17.06
2023-09-29T19:08:06.454Z,17.03
2023-09-29T19:10:33.648Z,17.00
2023-09-29T19:13:00.618Z,16.98
2023-09-29T19:15:27.536Z,16.97
2023-09-29T19:17:54.527Z,16.94
2023-09-29T19:20:21.731Z,16.91
2023-09-29T19:22:50.854Z,16.90
2023-09-29T19:25:19.035Z,16.89
2023-09-29T19:27:46.446Z,16.87
2023-09-29T19:30:13.908Z,16.84
2023-09-29T19:32:41.509Z,16.81
2023-09-29T19:35:08.798Z,16.81
2023-09-29T19:37:35.691Z,16.79
2023-09-29T19:40:02.572Z,16.76
2023-09-29T19:42:29.672Z,16.73
2023-09-29T19:44:56.712Z,16.72
2023-09-29T19:47:23.679Z,16.69
2023-09-29T19:49:50.572Z,16.68
2023-09-29T19:52:18.938Z,16.67
2023-09-29T19:54:45.826Z,16.65
2023-09-29T19:57:13.510Z,16.62
2023-09-29T19:59:40.386Z,16.61
2023-09-29T20:02:07.276Z,16.59
2023-09-29T20:04:34.206Z,16.57
2023-09-29T20:07:01.192Z,16.56
2023-09-29T20:09:28.039Z,16.54
2023-09-29T20:11:56.841Z,16.52
2023-09-29T20:14:23.872Z,16.51
2023-09-29T20:16:50.725Z,16.47
2023-09-29T20:19:17.639Z,16.46
2023-09-29T20:21:45.011Z,16.43
2023-09-29T20:24:12.075Z,16.43
2023-09-29T20:26:39.587Z,16.39
2023-09-29T20:29:06.702Z,16.39
2023-09-29T20:31:34.166Z,16.37
2023-09-29T20:34:01.634Z,16.36
2023-09-29T20:36:30.687Z,16.35
2023-09-29T20:39:02.776Z,16.35
2023-09-29T20:41:29.692Z,16.33
2023-09-29T20:43:57.376Z,16.31
2023-09-29T20:46:24.505Z,16.31
2023-09-29T20:48:51.488Z,16.31
2023-09-29T20:51:18.413Z,16.28
2023-09-29T20:53:45.351Z,16.27
2023-09-29T20:56:12.752Z,16.26
2023-09-29T20:58:39.799Z,16.25
2023-09-29T21:01:06.953Z,16.25
2023-09-29T21:03:35.627Z,16.23
2023-09-29T21:06:02.776Z,16.21
2023-09-29T21:08:29.743Z,16.21
2023-09-29T21:10:59.825Z,16.18
2023-09-29T21:13:26.931Z,16.18
2023-09-29T21:15:54.475Z,16.15
2023-09-29T21:18:22.392Z,16.13
2023-09-29T21:20:54.490Z,16.12
2023-09-29T21:23:21.738Z,16.13
2023-09-29T21:25:51.924Z,16.11
2023-09-29T21:28:18.814Z,16.11
2023-09-29T21:30:48.568Z,16.08
2023-09-29T21:33:15.718Z,16.06
2023-09-29T21:35:42.668Z,16.04
2023-09-29T21:38:09.527Z,16.02
2023-09-29T21:40:36.906Z,16.01
2023-09-29T21:43:03.943Z,16.00
2023-09-29T21:45:31.168Z,16.00
2023-09-29T21:47:58.128Z,15.98
2023-09-29T21:50:24.989Z,15.95
2023-09-29T21:52:51.815Z,15.92
2023-09-29T21:55:18.602Z,15.94
2023-09-29T21:57:45.444Z,15.92
2023-09-29T22:00:18.620Z,15.92
2023-09-29T22:02:46.597Z,15.91
2023-09-29T22:05:15.216Z,15.89
2023-09-29T22:07:43.325Z,15.88
2023-09-29T22:10:14.472Z,15.87
2023-09-29T22:12:42.918Z,15.87
2023-09-29T22:15:11.979Z,15.87
2023-09-29T22:17:39.041Z,15.86
2023-09-29T22:20:06.720Z,15.85
2023-09-29T22:22:33.604Z,15.84
2023-09-29T22:25:00.720Z,15.85
2023-09-29T22:27:27.726Z,15.85
2023-09-29T22:29:54.756Z,15.84
2023-09-29T22:32:21.756Z,15.83
2023-09-29T22:34:48.627Z,15.80
2023-09-29T22:37:15.445Z,15.81
2023-09-29T22:39:47.377Z,15.79
2023-09-29T22:42:15.209Z,15.79
2023-09-29T22:44:42.087Z,15.79
2023-09-29T22:47:09.024Z,15.77
2023-09-29T22:49:36.066Z,15.78
2023-09-29T22:52:03.544Z,15.76
2023-09-29T22:54:30.441Z,15.77
2023-09-29T22:56:58.247Z,15.77
2023-09-29T22:59:25.129Z,15.76
2023-09-29T23:01:51.927Z,15.72
2023-09-29T23:04:18.854Z,15.71
2023-09-29T23:06:45.822Z,15.71
2023-09-29T23:09:12.867Z,15.71
2023-09-29T23:11:39.766Z,15.70
2023-09-29T23:14:06.638Z,15.70
2023-09-29T23:16:33.551Z,15.69
2023-09-29T23:19:00.523Z,15.69
2023-09-29T23:21:28.020Z,15.68
2023-09-29T23:23:55.139Z,15.67
2023-09-29T23:26:22.362Z,15.66
2023-09-29T23:28:49.222Z,15.64
2023-09-29T23:31:16.822Z,15.62
2023-09-29T23:33:43.735Z,15.61
2023-09-29T23:36:10.612Z,15.60
2023-09-29T23:38:37.485Z,15.57
2023-09-29T23:41:08.600Z,15.56
2023-09-29T23:43:35.681Z,15.57
2023-09-29T23:46:06.526Z,15.56
2023-09-29T23:48:33.442Z,15.55
2023-09-29T23:51:01.021Z,15.53
2023-09-29T23:53:28.967Z,15.51
2023-09-29T23:56:03.340Z,15.52
2023-09-29T23:58:30.193Z,15.51
